Airfield :
LOGIN :

Register | Disclaimer

   EN    FR    IT 

 










Legend :    VFR   Marginal VFR   IFR   Intensive IFR   Very Intensive IFR
Visi :
Ceiling :
>= 8 km
>= 3000ft
5 to 8 km
1000 to 3000 ft
1500m to 5 km
500 to 1000 ft
800 to 1500m
200 to 500 ft
< 800m
< 200 ft
Symbols :   Thunderstorms  Fog  Heavy snow  Heavy precipitations  Wind > 20 kt
SIGMETs :     Misc.  Thunderstorms  Icing  Turbulence  Mountain Waves  Volcanic Ashes







- Airport Elevation : 33 ft
- IATA code : MHZ


EGUN - RAF Mildenhall

CURRENT METAR :
  • 181736Z AUTO 22019G23KT 9999 SCT044 SCT055 21/15 A2980 RMK AO2 SLP094

EXPIRED METARs :
  • 181721Z AUTO 22014G22KT 9999 SCT041 BKN060 21/14 A2980 RMK AO2 SLP094
  • 181716Z AUTO 22016G22KT 9999 BKN041 BKN060 21/14 A2980 RMK AO2 SLP094
  • 181701Z AUTO 22014KT 9999 SCT045 BKN060 21/14 A2979 RMK AO2 SLP091
  • 181601Z AUTO 22015G19KT 9999 BKN047 OVC055 22/14 A2979 RMK AO2 SLP091
  • 181536Z AUTO 23016G23KT 9999 OVC050 22/13 A2978 RMK AO2 SLP087
  • 181456Z AUTO 23015G25KT 9999 BKN043 22/13 A2978 RMK AO2 PK WND 24031/07 RAB22E23RAB29E39 SLP087 P0000 60000 T02200133 52020

TAF TAF EGUN
Valid from the 18 at 12:00 until the 19 at 18:00 UTC


181213Z 1812/1918 24015G25KT 9999 FEW030 QNH2971INS
TEMPO 1812/1816 24020G30KT
BECMG 1817/1818 21010G15KT 9999 FEW015 SCT035 QNH2982INS
TEMPO 1822/1901 BKN015
BECMG 1905/1906 20010G15KT 9999 BKN015 QNH2979INS
TEMPO 1906/1910 20015G20KT
BECMG 1909/1910 20025G35KT 9999 BKN030 QNH2976INS
TEMPO 1912/1916 21030G40KT TX22/1912Z TN13/1905Z
No reported NOTAMs for that airfield.
3 SIGMETs reported for the London FIR (EGTT) :
 
Severe mountain waves
EGTT SIGMET 09 VALID 181800/182200 EGRR
EGTT LONDON FIR SEV MTW FCST WI N5500 W00238 - N5500 E00203 - N5221 E00156 - N5039 W00347 - N5218 W00357 - N5500 W00238 FL040/240 STNR WKN=
Severe turbulence
EGTT SIGMET 08 VALID 181400/181800 EGRR
EGTT LONDON FIR SEV TURB FCST WI N5500 W00232 - N5500 E00458 - N5459 E00458 - N5348 E00354 - N5351 W00234 - N5458 W00234 - N5500 W00232 SFC/FL060 MOV NE 15KT NC=
Severe mountain waves
EGTT SIGMET 07 VALID 181400/181800 EGRR
EGTT LONDON FIR SEV MTW FCST WI N5221 E00156 - N5039 W00347 - N5209 W00411 - N5500 W00420 - N5500 E00203 - N5221 E00156 FL040/240 STNR NC=



MET'MAP, your aeronautical weather chart ! - Copyright ORBIFLY December 2007 - Disclaimer

ORBIFLY MET'MAP TEAM :

Programming & Development : Alexandra Zaïnal
Concept & Development : Baudouin d'Aumeries
Co-Development & Prog : Marc-Olivier Méhu
Technical & hardware support : Manuel Goepfert

Contact : metmap@orbifly.com




SOURCES & CREDITS :

   NOAA